Time;durP1;ratioP1;P1;durP2;ratioP2;P2;SDS_P1;SDS_P2;PMS_P1;PMS_P2;Temp;Humidity;BMP_temperature;BMP_pressure;BME280_temperature;BME280_humidity;BME280_pressure;Samples;Min_cycle;Max_cycle;Signal;HPM_P1;HPM_P2
2023/01/30 00:01:30;;;;;;;32.97;14.90;;;-1.20;99.90;;;-2.24;100.00;98472.84;4949977;28;20133;-71
2023/01/30 00:03:57;;;;;;;41.20;20.00;;;-1.20;99.90;;;-2.31;100.00;98487.09;4946965;28;20110;-71
2023/01/30 00:06:25;;;;;;;36.60;17.20;;;-1.20;99.90;;;-2.32;100.00;98494.72;4965671;28;20142;-71
2023/01/30 00:08:52;;;;;;;44.17;18.85;;;-1.10;99.90;;;-2.21;100.00;98475.47;4963173;28;20067;-71
2023/01/30 00:11:20;;;;;;;43.70;19.92;;;-1.20;99.90;;;-2.14;100.00;98482.41;4945640;28;20066;-71
2023/01/30 00:13:50;;;;;;;40.70;21.00;;;-1.20;99.90;;;-2.07;100.00;98468.16;4962054;28;20047;-71
2023/01/30 00:16:17;;;;;;;42.90;19.48;;;-1.20;99.90;;;-2.14;100.00;98471.38;4963613;28;20057;-71
2023/01/30 00:18:45;;;;;;;37.03;19.05;;;-1.20;99.90;;;-2.37;100.00;98460.72;4963776;28;20572;-71
2023/01/30 00:21:14;;;;;;;37.20;19.13;;;-1.30;99.90;;;-2.24;100.00;98465.22;4979018;28;20051;-71
2023/01/30 00:23:42;;;;;;;37.42;18.85;;;-1.30;99.90;;;-2.35;100.00;98472.63;4963040;28;20054;-71
2023/01/30 00:26:10;;;;;;;50.45;23.35;;;-1.40;99.90;;;-2.42;100.00;98482.59;4965630;28;20043;-71
2023/01/30 00:28:38;;;;;;;42.33;19.63;;;-1.30;99.90;;;-2.26;100.00;98486.34;4965292;28;20055;-71
2023/01/30 00:31:06;;;;;;;44.65;20.40;;;-1.40;99.90;;;-2.41;100.00;98499.59;4961646;28;20066;-71
2023/01/30 00:33:35;;;;;;;47.38;24.00;;;-1.40;99.90;;;-2.20;100.00;98495.00;4963568;28;20139;-71
2023/01/30 00:36:02;;;;;;;49.70;21.90;;;-1.40;99.90;;;-2.31;100.00;98504.91;4964625;28;20058;-71
2023/01/30 00:38:29;;;;;;;48.83;23.83;;;-1.40;99.90;;;-2.09;100.00;98491.84;4962554;28;20050;-71
2023/01/30 00:40:57;;;;;;;49.42;22.55;;;-1.50;99.90;;;-2.16;100.00;98501.03;4962689;28;20069;-71
2023/01/30 00:47:04;;;;;;;46.80;21.20;;;-1.40;99.90;;;-2.19;100.00;98465.31;4964788;28;20057;-71
2023/01/30 00:49:18;;;;;;;45.80;20.80;;;-1.40;99.90;;;-2.23;100.00;98451.69;4963993;28;20072;-71
2023/01/30 00:51:45;;;;;;;46.55;19.67;;;-1.40;99.90;;;-2.16;100.00;98448.47;4963873;28;20057;-71
2023/01/30 00:54:12;;;;;;;36.22;17.08;;;-1.50;99.90;;;-2.32;100.00;98426.06;4966876;28;20085;-71
2023/01/30 00:56:39;;;;;;;46.17;21.02;;;-1.40;99.90;;;-2.22;100.00;98402.53;4963728;28;20164;-71
2023/01/30 00:59:06;;;;;;;56.05;23.80;;;-1.50;99.90;;;-1.82;100.00;98412.69;4962623;28;20070;-71
2023/01/30 01:01:33;;;;;;;57.70;23.08;;;-1.50;99.90;;;-2.34;100.00;98420.94;4962254;28;20063;-71
2023/01/30 01:04:00;;;;;;;42.75;17.10;;;-1.50;99.90;;;-2.48;100.00;98440.13;4964642;28;20058;-71
2023/01/30 01:06:27;;;;;;;41.08;17.95;;;-1.50;99.90;;;-2.41;100.00;98425.88;4948606;28;20058;-72
2023/01/30 01:08:54;;;;;;;50.08;23.80;;;-1.50;99.90;;;-2.54;100.00;98437.41;4960999;28;20055;-71
2023/01/30 01:11:25;;;;;;;35.20;15.65;;;-1.50;99.90;;;-2.44;100.00;98448.66;4965713;28;20138;-71
2023/01/30 01:13:58;;;;;;;39.85;16.83;;;-1.50;99.90;;;-2.53;100.00;98440.00;4963955;28;20046;-71
2023/01/30 01:16:29;;;;;;;44.65;17.70;;;-1.50;99.90;;;-2.51;100.00;98440.03;4964170;28;20062;-71
2023/01/30 01:18:55;;;;;;;50.17;17.95;;;-1.50;99.90;;;-2.40;100.00;98427.56;4959000;28;20051;-71
2023/01/30 01:21:23;;;;;;;47.28;19.15;;;-1.50;99.90;;;-2.48;100.00;98412.16;4963575;28;20054;-71
2023/01/30 01:23:58;;;;;;;45.00;18.98;;;-1.60;99.90;;;-2.59;100.00;98408.50;4975962;28;20063;-71
2023/01/30 01:26:26;;;;;;;50.45;20.45;;;-1.50;99.90;;;-2.58;100.00;98408.56;4947935;28;20448;-72
2023/01/30 01:28:55;;;;;;;51.08;19.27;;;-1.60;99.90;;;-2.52;100.00;98408.66;4959953;28;20137;-71
2023/01/30 01:31:23;;;;;;;46.17;17.88;;;-1.60;99.90;;;-2.49;100.00;98447.69;4957450;28;20442;-71
2023/01/30 01:33:50;;;;;;;45.95;17.92;;;-1.60;99.90;;;-2.44;100.00;98439.38;4961315;28;20548;-71
2023/01/30 01:36:18;;;;;;;44.20;18.30;;;-1.60;99.90;;;-2.54;100.00;98471.31;4959755;28;20144;-71
2023/01/30 01:39:05;;;;;;;36.40;14.90;;;-1.50;99.90;;;-2.33;100.00;98434.50;4970756;28;20051;-71
2023/01/30 01:41:32;;;;;;;49.58;20.60;;;-1.50;99.90;;;-2.35;100.00;98434.50;4962096;28;20050;-71
2023/01/30 01:44:09;;;;;;;38.78;16.35;;;-1.50;99.90;;;-2.42;100.00;98440.22;4961453;28;20061;-71
2023/01/30 01:46:54;;;;;;;49.47;19.92;;;-1.50;99.90;;;-2.48;100.00;98403.69;4962426;28;20078;-71
2023/01/30 01:49:32;;;;;;;48.28;18.63;;;-1.50;99.90;;;-2.48;100.00;98403.69;4956216;28;20046;-71
2023/01/30 01:52:14;;;;;;;51.55;20.67;;;-1.50;99.90;;;-2.50;100.00;98406.16;4977400;28;20082;-71
2023/01/30 01:54:52;;;;;;;42.28;17.38;;;-1.50;99.90;;;-2.41;100.00;98372.47;4968917;28;20055;-71
2023/01/30 01:57:46;;;;;;;43.70;17.20;;;-1.50;99.90;;;-2.52;100.00;98375.63;4979204;28;20051;-71
2023/01/30 02:00:18;;;;;;;42.88;17.85;;;-1.50;99.90;;;-2.49;100.00;98382.44;4967665;28;20450;-71
2023/01/30 02:03:00;;;;;;;57.78;17.60;;;-1.50;99.90;;;-2.46;100.00;98367.28;4981210;28;20047;-71
2023/01/30 02:05:33;;;;;;;39.58;14.23;;;-1.50;99.90;;;-2.40;100.00;98354.69;4963872;28;20414;-71
2023/01/30 02:08:13;;;;;;;36.70;15.27;;;-1.50;99.90;;;-2.30;100.00;98350.69;4966813;28;20054;-71
2023/01/30 02:10:53;;;;;;;47.85;19.65;;;-1.50;99.90;;;-2.40;100.00;98369.94;4968292;28;20069;-71
2023/01/30 02:13:21;;;;;;;49.75;18.98;;;-1.50;99.90;;;-2.41;100.00;98347.03;4964255;28;20051;-71
2023/01/30 02:15:49;;;;;;;41.13;18.20;;;-1.50;99.90;;;-2.43;100.00;98374.13;4961257;28;20051;-71
2023/01/30 02:18:17;;;;;;;45.78;19.40;;;-1.50;99.90;;;-2.43;100.00;98347.00;4969455;28;20206;-71
2023/01/30 02:21:12;;;;;;;48.03;18.35;;;-1.40;99.90;;;-2.42;100.00;98383.44;4965365;28;20413;-71
2023/01/30 02:24:03;;;;;;;38.17;16.98;;;-1.50;99.90;;;-2.27;100.00;98373.63;4967852;28;20050;-71
2023/01/30 02:26:36;;;;;;;43.08;18.17;;;-1.40;99.90;;;-2.45;100.00;98376.63;4966388;28;20162;-71
2023/01/30 02:29:33;;;;;;;49.97;15.75;;;-1.50;99.90;;;-2.32;100.00;98343.00;4964788;28;20359;-71
2023/01/30 02:32:18;;;;;;;48.03;19.35;;;-1.50;99.90;;;-2.46;100.00;98338.44;4961104;28;20126;-71
2023/01/30 02:34:56;;;;;;;49.55;20.23;;;-1.40;99.90;;;-2.48;100.00;98350.28;4967658;28;20046;-71
2023/01/30 02:37:57;;;;;;;35.30;14.93;;;-1.50;99.90;;;-2.51;100.00;98328.19;4964795;28;20501;-71
2023/01/30 02:40:39;;;;;;;47.08;19.33;;;-1.40;99.90;;;-2.56;100.00;98363.66;4966975;28;20051;-71
2023/01/30 02:43:46;;;;;;;47.63;17.85;;;-1.50;99.90;;;-2.39;100.00;98323.38;4962665;28;20043;-71
2023/01/30 02:46:24;;;;;;;51.05;18.08;;;-1.40;99.90;;;-2.42;100.00;98366.50;4949290;28;20050;-71
2023/01/30 02:49:15;;;;;;;47.88;18.55;;;-1.40;99.90;;;-2.35;100.00;98382.75;4967712;28;20047;-71
2023/01/30 02:51:45;;;;;;;50.88;19.20;;;-1.40;99.90;;;-2.43;100.00;98379.19;4965844;28;20046;-71
2023/01/30 02:54:13;;;;;;;51.40;21.33;;;-1.40;99.90;;;-2.36;100.00;98360.72;4964115;28;20078;-71
2023/01/30 02:56:54;;;;;;;45.42;18.80;;;-1.40;99.90;;;-2.26;100.00;98349.88;4965362;28;20479;-71
2023/01/30 02:59:43;;;;;;;53.17;21.13;;;-1.40;99.90;;;-2.24;100.00;98340.59;4965005;28;20883;-71
2023/01/30 03:02:24;;;;;;;48.05;19.55;;;-1.40;99.90;;;-2.22;100.00;98355.91;4965753;28;20063;-71
2023/01/30 03:05:29;;;;;;;58.30;20.85;;;-1.40;99.90;;;-2.19;100.00;98333.94;4959788;28;20057;-71
2023/01/30 03:08:27;;;;;;;46.20;18.65;;;-1.40;99.90;;;-2.19;100.00;98339.03;4967644;28;20074;-71
2023/01/30 03:11:07;;;;;;;49.33;20.23;;;-1.40;99.90;;;-2.35;100.00;98337.88;4961756;28;20051;-71
2023/01/30 03:14:06;;;;;;;52.28;21.48;;;-1.40;99.90;;;-1.21;100.00;98350.13;4967511;28;20059;-71
2023/01/30 03:16:40;;;;;;;50.28;20.23;;;-1.40;99.90;;;-2.27;100.00;98322.75;4964648;28;20050;-71
2023/01/30 03:19:12;;;;;;;41.00;16.63;;;-1.50;99.90;;;-2.28;100.00;98340.50;4949767;28;20362;-71
2023/01/30 03:21:41;;;;;;;38.42;15.40;;;-1.40;99.90;;;-2.17;100.00;98341.59;4976956;28;20047;-71
2023/01/30 03:24:09;;;;;;;50.70;21.05;;;-1.40;99.90;;;-2.26;100.00;98339.72;4978149;28;20047;-71
2023/01/30 03:26:47;;;;;;;63.63;23.60;;;-1.40;99.90;;;-2.29;100.00;98343.91;4962715;28;20057;-71
2023/01/30 03:29:15;;;;;;;54.45;22.40;;;-1.40;99.90;;;-2.23;100.00;98346.56;4966901;28;20047;-71
2023/01/30 03:31:42;;;;;;;64.13;25.52;;;-1.30;99.90;;;-1.94;100.00;98364.94;4977780;28;20053;-71
2023/01/30 03:34:09;;;;;;;53.65;22.75;;;-1.40;99.90;;;-2.24;100.00;98345.69;4959864;28;20105;-71
2023/01/30 03:36:36;;;;;;;55.63;23.00;;;-1.40;99.90;;;-2.26;100.00;98369.38;4967188;28;20086;-71
2023/01/30 03:39:03;;;;;;;65.88;25.33;;;-1.40;99.90;;;-2.25;100.00;98364.34;4961942;28;20054;-71
2023/01/30 03:41:31;;;;;;;54.80;21.92;;;-1.40;99.90;;;-2.14;100.00;98356.94;4961983;28;20085;-71
2023/01/30 03:43:58;;;;;;;51.90;21.30;;;-1.30;99.90;;;-2.09;100.00;98355.34;4962524;28;20047;-71
2023/01/30 03:46:25;;;;;;;52.40;21.40;;;-1.40;99.90;;;-2.10;100.00;98366.31;4960024;28;20450;-71
2023/01/30 03:48:52;;;;;;;63.47;22.33;;;-1.30;99.90;;;-1.91;100.00;98362.47;4964923;28;20410;-71
2023/01/30 03:51:19;;;;;;;54.28;22.45;;;-1.30;99.90;;;-2.09;100.00;98378.22;4960928;28;20430;-71
2023/01/30 03:53:46;;;;;;;60.88;23.83;;;-1.20;99.90;;;-1.98;100.00;98353.00;4960911;28;20157;-71
2023/01/30 03:56:12;;;;;;;64.03;26.27;;;-1.20;99.90;;;-1.86;100.00;98344.75;4963501;28;20051;-71
2023/01/30 03:58:40;;;;;;;50.50;21.48;;;-1.20;99.90;;;-2.06;100.00;98350.28;4962209;28;20131;-71
2023/01/30 04:01:07;;;;;;;55.53;21.90;;;-1.20;99.90;;;-2.17;100.00;98346.69;4965150;28;20045;-71
2023/01/30 04:03:33;;;;;;;50.10;21.65;;;-1.10;99.90;;;-1.96;100.00;98329.31;4963363;28;20134;-71
2023/01/30 04:06:00;;;;;;;50.20;19.27;;;-1.10;99.90;;;-1.95;100.00;98350.50;4963296;28;20105;-71
2023/01/30 04:08:27;;;;;;;48.55;19.38;;;-1.10;99.90;;;-1.93;100.00;98353.94;4962095;28;20054;-70
2023/01/30 04:10:55;;;;;;;44.70;20.73;;;-1.10;99.90;;;-1.93;100.00;98359.03;4963929;28;20058;-71
2023/01/30 04:13:22;;;;;;;55.67;22.88;;;-1.10;99.90;;;-1.88;100.00;98333.69;4959304;28;20079;-70
2023/01/30 04:15:49;;;;;;;50.30;21.70;;;-1.10;99.90;;;-1.89;100.00;98322.66;4966274;28;20058;-71
2023/01/30 04:18:16;;;;;;;51.15;20.80;;;-1.10;99.90;;;-1.94;100.00;98336.94;4962480;28;20054;-71
2023/01/30 04:20:44;;;;;;;48.67;19.88;;;-1.10;99.90;;;-1.86;100.00;98326.94;4977997;28;20090;-71
2023/01/30 04:23:12;;;;;;;45.20;20.40;;;-1.10;99.90;;;-1.96;100.00;98330.97;4977023;28;20161;-71
2023/01/30 04:25:39;;;;;;;46.38;16.38;;;-1.10;99.90;;;-2.00;100.00;98350.44;4965565;28;20054;-71
2023/01/30 04:28:06;;;;;;;44.97;19.23;;;-1.00;99.90;;;-1.97;100.00;98314.84;4964385;28;20050;-71
2023/01/30 04:30:33;;;;;;;47.85;21.25;;;-1.00;99.90;;;-1.80;100.00;98343.19;4958930;28;20058;-71
2023/01/30 04:33:00;;;;;;;43.58;17.13;;;-1.10;99.90;;;-1.65;100.00;98332.41;4962397;28;20047;-71
2023/01/30 04:35:28;;;;;;;43.88;21.05;;;-1.10;99.90;;;-1.87;100.00;98313.38;4959692;28;22019;-71
2023/01/30 04:37:55;;;;;;;48.92;20.40;;;-1.00;99.90;;;-1.96;100.00;98324.22;4958737;28;20127;-71
2023/01/30 04:40:22;;;;;;;47.15;20.83;;;-1.00;99.90;;;-1.84;100.00;98315.09;4960158;28;20055;-71
2023/01/30 04:42:49;;;;;;;57.08;21.60;;;-1.00;99.90;;;-1.71;100.00;98305.16;4958699;28;20043;-71
2023/01/30 04:45:16;;;;;;;49.83;22.55;;;-1.00;99.90;;;-1.72;100.00;98290.72;4960749;28;20059;-71
2023/01/30 04:47:44;;;;;;;32.13;14.85;;;-1.00;99.90;;;-1.75;100.00;98288.13;4961692;28;20077;-71
2023/01/30 04:50:11;;;;;;;37.20;15.52;;;-1.00;99.90;;;-1.83;100.00;98264.22;4961797;28;20083;-70
2023/01/30 04:52:38;;;;;;;49.22;20.83;;;-0.90;99.90;;;-1.69;100.00;98292.44;4962162;28;20058;-71
2023/01/30 04:55:06;;;;;;;52.70;21.90;;;-1.00;99.90;;;-1.67;100.00;98290.78;4975577;28;20050;-71
2023/01/30 04:57:33;;;;;;;42.50;18.13;;;-1.00;99.90;;;-1.75;100.00;98311.03;4945355;28;20059;-71
2023/01/30 05:00:00;;;;;;;49.65;21.67;;;-1.00;99.90;;;-1.62;100.00;98286.66;4973830;28;20047;-71
2023/01/30 05:02:27;;;;;;;51.53;23.98;;;-1.00;99.90;;;-1.77;100.00;98299.13;4961691;28;20099;-71
2023/01/30 05:04:54;;;;;;;60.85;23.52;;;-1.00;99.90;;;-0.99;100.00;98313.13;4960936;28;20051;-71
2023/01/30 05:07:21;;;;;;;51.17;23.23;;;-0.90;99.90;;;-0.08;100.00;98288.81;4961605;28;20077;-71
2023/01/30 05:09:48;;;;;;;40.97;17.38;;;-0.90;99.90;;;-0.19;100.00;98303.97;4962501;28;20055;-71
2023/01/30 05:12:17;;;;;;;60.60;23.40;;;-0.90;99.90;;;-0.62;100.00;98272.84;4958449;28;20059;-71
2023/01/30 05:14:45;;;;;;;51.40;21.58;;;-0.90;99.90;;;-0.75;100.00;98253.13;4963274;28;20047;-71
2023/01/30 05:17:12;;;;;;;33.60;13.98;;;-0.90;99.90;;;-1.19;100.00;98238.94;4961671;28;20047;-71
2023/01/30 05:19:39;;;;;;;37.20;16.48;;;-0.90;99.90;;;-1.43;100.00;98261.50;4943728;28;20043;-70
2023/01/30 05:22:06;;;;;;;41.80;19.10;;;-0.80;99.90;;;-1.52;100.00;98252.03;4965895;28;20379;-71
2023/01/30 05:24:33;;;;;;;48.08;19.75;;;-0.70;99.90;;;-1.39;100.00;98243.75;4946339;28;20043;-70
2023/01/30 05:27:00;;;;;;;46.13;19.83;;;-0.60;99.90;;;-1.31;100.00;98252.34;4962124;28;20510;-71
2023/01/30 05:29:27;;;;;;;47.90;17.90;;;-0.60;99.90;;;-1.36;100.00;98253.97;4961985;28;20046;-71
2023/01/30 05:31:54;;;;;;;47.70;21.80;;;-0.60;99.90;;;-1.04;100.00;98235.75;4957923;28;20444;-71
2023/01/30 05:34:22;;;;;;;41.90;19.27;;;-0.60;99.90;;;-1.07;100.00;98192.41;4958869;28;20085;-71
2023/01/30 05:36:49;;;;;;;37.17;18.02;;;-0.70;99.90;;;-1.09;100.00;98210.22;4960857;28;20506;-71
2023/01/30 05:39:16;;;;;;;42.45;19.02;;;-0.60;99.90;;;-1.04;100.00;98211.97;4955901;28;20525;-71
2023/01/30 05:41:43;;;;;;;36.13;16.35;;;-0.60;99.90;;;-1.34;100.00;98248.91;4975703;28;20057;-71
2023/01/30 05:44:10;;;;;;;39.83;17.13;;;-0.60;99.90;;;-1.38;100.00;98224.22;4959178;28;20370;-71
2023/01/30 05:46:38;;;;;;;46.10;17.67;;;-0.70;99.90;;;-1.48;100.00;98226.63;4959946;28;20133;-71
2023/01/30 05:49:06;;;;;;;41.75;17.35;;;-0.60;99.90;;;-1.38;100.00;98212.34;4962259;28;20058;-71
2023/01/30 05:51:33;;;;;;;57.28;24.38;;;-0.70;99.90;;;-1.37;100.00;98225.94;4967885;28;20049;-71
2023/01/30 05:54:00;;;;;;;43.72;19.17;;;-0.70;99.90;;;-1.47;100.00;98251.25;4962041;28;20047;-71
2023/01/30 05:56:27;;;;;;;59.42;20.55;;;-0.60;99.90;;;-1.43;100.00;98241.13;4958408;28;20061;-71
2023/01/30 05:58:55;;;;;;;54.17;22.10;;;-0.60;99.90;;;-1.34;100.00;98236.19;4959511;28;20046;-71
2023/01/30 06:01:23;;;;;;;45.42;19.55;;;-0.60;99.90;;;-1.32;100.00;98217.53;4973673;28;20047;-71
2023/01/30 06:03:50;;;;;;;63.63;24.73;;;-0.70;99.90;;;-1.29;100.00;98227.75;4958865;28;20059;-71
2023/01/30 06:06:18;;;;;;;46.78;19.95;;;-0.60;99.90;;;-1.38;100.00;98250.53;4960650;28;20070;-71
2023/01/30 06:08:46;;;;;;;46.00;19.85;;;-0.60;99.90;;;-1.36;100.00;98214.94;4964162;28;20134;-71
2023/01/30 06:11:15;;;;;;;52.40;19.33;;;-0.60;99.90;;;-1.42;100.00;98215.66;4970854;28;20055;-70
2023/01/30 06:13:43;;;;;;;38.88;17.65;;;-0.60;99.90;;;-1.38;100.00;98217.44;4963612;28;20051;-71
2023/01/30 06:16:13;;;;;;;42.20;18.08;;;-0.50;99.90;;;-1.34;100.00;98231.09;4976817;28;20047;-70
2023/01/30 06:18:40;;;;;;;56.83;23.15;;;-0.50;99.90;;;-1.26;100.00;98215.06;4959982;28;20083;-70
2023/01/30 06:21:08;;;;;;;49.08;20.95;;;-0.50;99.90;;;-1.40;100.00;98236.06;4955937;28;20058;-71
2023/01/30 06:23:36;;;;;;;54.03;22.58;;;-0.50;99.90;;;-1.28;100.00;98200.59;4959510;28;20517;-70
2023/01/30 06:26:05;;;;;;;49.97;20.10;;;-0.50;99.90;;;-1.09;100.00;98220.41;4958273;28;20086;-70
2023/01/30 06:28:37;;;;;;;45.25;20.95;;;-0.50;99.90;;;-1.13;100.00;98213.56;4962564;28;20061;-70
2023/01/30 06:31:08;;;;;;;51.60;21.50;;;-0.50;99.90;;;-1.32;100.00;98230.28;4962228;28;20413;-71
2023/01/30 06:33:35;;;;;;;41.63;18.50;;;-0.50;99.90;;;-1.21;100.00;98225.31;4961392;28;20073;-71
2023/01/30 06:36:02;;;;;;;53.13;21.65;;;-0.50;99.90;;;-1.17;100.00;98229.63;4965661;28;20051;-71
2023/01/30 06:38:29;;;;;;;49.38;21.55;;;-0.50;99.90;;;-1.20;100.00;98187.97;4967544;28;20047;-71
2023/01/30 06:40:59;;;;;;;52.90;21.48;;;-0.50;99.90;;;-1.10;100.00;98184.72;4960441;28;20051;-71
2023/01/30 06:43:26;;;;;;;51.03;20.70;;;-0.50;99.90;;;-1.16;100.00;98174.47;4963139;28;20055;-71
2023/01/30 06:45:53;;;;;;;55.65;23.80;;;-0.50;99.90;;;-1.27;100.00;98179.41;4964896;28;20137;-71
2023/01/30 06:48:19;;;;;;;56.60;22.42;;;-0.50;99.90;;;-1.23;100.00;98200.66;4963965;28;20137;-71
2023/01/30 06:50:47;;;;;;;50.75;19.00;;;-0.50;99.90;;;-1.26;100.00;98197.22;4964023;28;20051;-71
2023/01/30 06:53:14;;;;;;;48.20;19.55;;;-0.50;99.90;;;-1.27;100.00;98209.97;4964080;28;20509;-71
2023/01/30 06:55:41;;;;;;;47.33;22.05;;;-0.50;99.90;;;-0.96;100.00;98197.63;4949468;28;20061;-71
2023/01/30 06:58:13;;;;;;;51.67;19.40;;;-0.50;99.90;;;-1.23;100.00;98214.28;4963721;28;20054;-71
2023/01/30 07:00:42;;;;;;;45.70;17.15;;;-0.50;99.90;;;-1.06;100.00;98217.91;4952735;28;20121;-70
2023/01/30 07:03:14;;;;;;;60.22;23.77;;;-0.50;99.90;;;-1.07;100.00;98228.94;4977517;28;20049;-71
2023/01/30 07:05:44;;;;;;;59.08;17.02;;;-0.40;99.90;;;-1.26;100.00;98204.03;4965611;28;20110;-70
2023/01/30 07:08:12;;;;;;;47.58;18.67;;;-0.30;99.90;;;-1.28;100.00;98226.94;4966565;28;20142;-70
2023/01/30 07:10:40;;;;;;;66.22;25.85;;;-0.30;99.90;;;-1.21;100.00;98204.94;4967880;28;20178;-71
2023/01/30 07:13:08;;;;;;;58.38;20.65;;;-0.30;99.90;;;1.27;100.00;98268.63;4958104;28;20047;-71
2023/01/30 07:15:35;;;;;;;48.20;20.05;;;-0.30;99.90;;;1.39;100.00;98300.25;4979227;28;20047;-71
2023/01/30 07:18:02;;;;;;;43.83;17.83;;;-0.30;99.90;;;1.17;100.00;98254.94;4962469;28;20102;-71
2023/01/30 07:20:30;;;;;;;53.00;21.08;;;-0.30;99.90;;;1.02;100.00;98225.03;4963691;28;20048;-71
2023/01/30 07:22:57;;;;;;;51.00;18.33;;;-0.30;99.90;;;-0.83;100.00;98204.59;4966191;28;20896;-71
2023/01/30 07:25:26;;;;;;;44.45;17.88;;;-0.30;99.90;;;-0.93;100.00;98185.81;4957719;28;20165;-71
2023/01/30 07:28:00;;;;;;;52.03;22.98;;;-0.20;99.90;;;-1.00;100.00;98199.31;4961967;28;20078;-71
2023/01/30 07:30:34;;;;;;;49.03;19.58;;;-0.20;99.90;;;-1.03;100.00;98209.44;4950717;28;20168;-71
2023/01/30 07:33:05;;;;;;;50.83;21.75;;;-0.30;99.90;;;-0.85;100.00;98191.84;4962741;28;20059;-71
2023/01/30 07:35:35;;;;;;;39.15;17.77;;;-0.30;99.90;;;-1.00;100.00;98236.63;4961418;28;20071;-71
2023/01/30 07:38:03;;;;;;;36.42;18.40;;;-0.30;99.90;;;-0.99;100.00;98249.41;4962180;28;20599;-70
2023/01/30 07:40:31;;;;;;;42.08;20.00;;;-0.30;99.90;;;-1.00;100.00;98274.88;4964894;28;20093;-71
2023/01/30 07:43:08;;;;;;;34.92;17.45;;;-0.30;99.90;;;-0.92;100.00;98265.66;4962736;28;20057;-71
2023/01/30 07:45:45;;;;;;;40.63;18.02;;;-0.30;99.90;;;-0.87;100.00;98253.81;4964944;28;22008;-71
2023/01/30 07:48:16;;;;;;;32.50;15.18;;;-0.30;99.90;;;-0.92;100.00;98240.16;4961766;28;20116;-71
2023/01/30 07:50:44;;;;;;;40.85;16.50;;;-0.30;99.90;;;-0.75;100.00;98237.81;4966802;28;20599;-73
2023/01/30 07:53:17;;;;;;;37.00;17.67;;;-0.30;99.90;;;-0.77;100.00;98255.66;4962809;28;20062;-71
2023/01/30 07:55:44;;;;;;;34.35;15.02;;;-0.30;99.90;;;-1.03;100.00;98259.53;4964822;28;20062;-71
2023/01/30 07:58:16;;;;;;;48.45;22.73;;;-0.20;99.90;;;-0.95;100.00;98265.63;4959847;28;20153;-71
2023/01/30 08:00:44;;;;;;;28.50;10.88;;;-0.20;99.90;;;-0.78;100.00;98256.50;4976770;28;20121;-71
2023/01/30 08:03:16;;;;;;;48.08;22.25;;;-0.20;99.90;;;-0.87;100.00;98256.38;4960231;28;20051;-71
2023/01/30 08:05:45;;;;;;;41.17;19.90;;;-0.20;99.90;;;-0.83;100.00;98278.53;4960608;28;20058;-71
2023/01/30 08:08:13;;;;;;;30.95;15.02;;;-0.10;99.90;;;-0.66;100.00;98266.03;4967022;28;20065;-71
2023/01/30 08:10:41;;;;;;;35.88;17.15;;;-0.20;99.90;;;-0.72;100.00;98286.31;4962708;28;20046;-71
2023/01/30 08:13:08;;;;;;;41.55;18.90;;;-0.20;99.90;;;-0.56;100.00;98244.88;4965127;28;20055;-71
2023/01/30 08:15:35;;;;;;;32.28;16.75;;;-0.10;99.90;;;-0.73;100.00;98242.13;4965158;28;20054;-71
2023/01/30 08:18:02;;;;;;;34.78;16.70;;;-0.10;99.90;;;-0.64;100.00;98234.59;4959616;28;20043;-71
2023/01/30 08:20:29;;;;;;;34.88;16.10;;;-0.10;99.90;;;-0.73;100.00;98242.13;4961415;28;20050;-71
2023/01/30 08:22:59;;;;;;;36.75;18.05;;;0.00;99.90;;;-0.50;100.00;98211.81;4962184;28;20480;-71
2023/01/30 08:25:27;;;;;;;34.88;15.52;;;-0.10;99.90;;;-0.60;100.00;98199.78;4957596;28;20079;-71
2023/01/30 08:27:57;;;;;;;30.25;15.30;;;0.00;99.90;;;-0.61;100.00;98245.69;4960243;28;20047;-71
2023/01/30 08:30:24;;;;;;;39.50;18.67;;;0.00;99.90;;;-0.40;100.00;98237.44;4946295;28;20054;-71
2023/01/30 08:32:51;;;;;;;25.98;13.48;;;0.00;99.90;;;-0.43;100.00;98228.91;4960423;28;20387;-71
2023/01/30 08:35:18;;;;;;;25.35;12.77;;;0.00;99.90;;;-0.45;100.00;98234.81;4957965;28;20054;-71
2023/01/30 08:37:45;;;;;;;33.85;16.67;;;0.10;99.90;;;-0.41;100.00;98236.56;4960455;28;20061;-71
2023/01/30 08:40:13;;;;;;;26.13;13.18;;;0.10;99.90;;;-0.44;100.00;98226.31;4958775;28;20042;-70
2023/01/30 08:42:44;;;;;;;24.92;12.75;;;0.20;99.90;;;-0.33;100.00;98227.28;4961460;28;20429;-71
2023/01/30 08:45:11;;;;;;;24.20;12.52;;;0.20;99.90;;;-0.23;100.00;98234.22;4962578;28;20051;-70
2023/01/30 08:47:38;;;;;;;25.88;13.65;;;0.30;99.90;;;-0.39;100.00;98251.88;4960222;28;20054;-71
2023/01/30 08:50:06;;;;;;;28.88;15.20;;;0.30;99.90;;;-0.22;100.00;98224.88;4964550;28;20057;-71
2023/01/30 08:52:34;;;;;;;25.92;13.93;;;0.20;99.90;;;-0.28;100.00;98223.09;4966824;28;20054;-71
2023/01/30 08:55:01;;;;;;;26.60;14.65;;;0.30;99.90;;;-0.26;100.00;98236.72;4971985;28;20054;-71
2023/01/30 08:57:28;;;;;;;18.30;9.05;;;0.30;99.90;;;-0.17;100.00;98225.75;4958736;28;20053;-71
2023/01/30 08:59:55;;;;;;;48.05;12.65;;;0.30;99.90;;;-0.18;100.00;98207.88;4964336;28;20537;-71
2023/01/30 09:02:22;;;;;;;18.95;10.93;;;0.30;99.90;;;-0.16;100.00;98224.94;4963021;28;20074;-71
2023/01/30 09:04:49;;;;;;;21.92;11.45;;;0.40;99.90;;;-0.06;100.00;98233.53;4960252;28;20058;-71
2023/01/30 09:07:17;;;;;;;22.92;11.38;;;0.40;99.90;;;0.10;100.00;98198.81;4958678;28;20095;-71
2023/01/30 09:09:45;;;;;;;17.42;9.15;;;0.50;99.90;;;0.13;100.00;98219.25;4961057;28;20506;-71
2023/01/30 09:12:12;;;;;;;21.13;11.10;;;0.40;99.90;;;-0.01;100.00;98196.16;4960638;28;20080;-71
2023/01/30 09:14:39;;;;;;;15.30;8.68;;;0.50;99.90;;;0.06;100.00;98207.28;4962811;28;20077;-71
2023/01/30 09:17:06;;;;;;;17.83;10.10;;;0.50;99.90;;;0.08;100.00;98198.78;4963249;28;20078;-71
2023/01/30 09:19:35;;;;;;;15.40;8.07;;;0.60;99.90;;;0.04;100.00;98199.59;4974371;28;20414;-71
2023/01/30 09:22:03;;;;;;;19.38;10.73;;;0.60;99.90;;;0.03;100.00;98197.91;4960716;28;20201;-71
2023/01/30 09:24:30;;;;;;;21.15;12.02;;;0.60;99.90;;;0.11;100.00;98177.53;4975469;28;20077;-71
2023/01/30 09:26:58;;;;;;;20.08;10.75;;;0.60;99.90;;;0.19;100.00;98196.34;4973591;28;20054;-71
2023/01/30 09:29:26;;;;;;;17.45;10.00;;;0.60;99.90;;;0.09;100.00;98190.31;4961585;28;20137;-71
2023/01/30 09:31:58;;;;;;;22.83;11.75;;;0.60;99.90;;;0.24;100.00;98181.91;4974620;28;20047;-71
2023/01/30 09:34:27;;;;;;;16.65;9.73;;;0.60;99.90;;;0.27;100.00;98173.41;4962834;28;20055;-71
2023/01/30 09:37:02;;;;;;;17.80;9.23;;;0.60;99.90;;;0.24;100.00;98155.53;4961205;28;20054;-71
2023/01/30 09:39:30;;;;;;;19.13;10.48;;;0.60;99.90;;;0.24;100.00;98187.00;4962480;28;20615;-71
2023/01/30 09:42:04;;;;;;;17.10;9.65;;;0.60;99.90;;;0.10;100.00;98148.59;4945674;28;20047;-71
2023/01/30 09:44:55;;;;;;;16.30;9.98;;;0.60;99.90;;;0.14;100.00;98147.78;4961013;28;20054;-71
2023/01/30 09:47:54;;;;;;;15.60;8.88;;;0.60;99.90;;;0.10;100.00;98161.38;4964430;28;20129;-71
2023/01/30 09:50:51;;;;;;;17.35;8.52;;;0.60;99.90;;;0.16;100.00;98153.78;4959440;28;20482;-71
2023/01/30 09:53:24;;;;;;;14.10;7.72;;;0.60;99.90;;;0.18;100.00;98163.97;4963464;28;20477;-71
2023/01/30 09:55:51;;;;;;;13.85;6.85;;;0.60;99.90;;;0.18;100.00;98157.19;4960238;28;20138;-71
2023/01/30 09:58:22;;;;;;;17.27;9.70;;;0.70;99.90;;;0.17;100.00;98155.47;4960026;28;20141;-71
2023/01/30 10:00:56;;;;;;;14.15;8.20;;;0.80;99.90;;;0.39;100.00;98171.81;4968010;28;20047;-71
2023/01/30 10:03:33;;;;;;;14.65;9.13;;;0.80;99.90;;;0.48;100.00;98152.28;4968096;28;20052;-71
2023/01/30 10:06:06;;;;;;;14.23;8.38;;;0.80;99.90;;;0.32;100.00;98170.06;4949221;28;20078;-72
2023/01/30 10:09:08;;;;;;;15.77;8.87;;;0.90;99.90;;;0.33;100.00;98178.56;4961600;28;20053;-71
2023/01/30 10:11:47;;;;;;;14.15;8.63;;;0.90;99.90;;;0.34;100.00;98165.84;4954505;28;20312;-71
2023/01/30 10:14:35;;;;;;;14.10;7.78;;;1.00;99.90;;;0.32;100.00;98170.06;4961042;28;20518;-72
2023/01/30 10:17:39;;;;;;;14.70;8.40;;;0.90;99.90;;;0.36;100.00;98158.16;4956910;28;20521;-71
2023/01/30 10:20:30;;;;;;;14.80;8.80;;;1.00;99.90;;;0.35;100.00;98157.31;4900777;29;20572;-72
2023/01/30 10:23:34;;;;;;;18.35;8.43;;;0.90;99.90;;;0.24;100.00;98158.06;4969569;28;20134;-72